sensor_id;sensor_type;location;lat;lon;timestamp;pressure;altitude;pressure_sealevel;temperature;humidity
13029;BME280;6581;42.662;23.402;2023-02-20T00:05:07;95617.19;;;11.16;59.22
13029;BME280;6581;42.662;23.402;2023-02-20T00:20:02;95628.38;;;10.87;62.05
13029;BME280;6581;42.662;23.402;2023-02-20T00:23:09;95609.91;;;10.90;62.44
13029;BME280;6581;42.662;23.402;2023-02-20T01:36:14;95697.97;;;10.14;70.56
13029;BME280;6581;42.662;23.402;2023-02-20T01:38:49;95681.00;;;10.15;70.83
13029;BME280;6581;42.662;23.402;2023-02-20T01:41:57;95671.88;;;10.12;70.51
13029;BME280;6581;42.662;23.402;2023-02-20T01:44:32;95666.91;;;10.11;70.50
13029;BME280;6581;42.662;23.402;2023-02-20T01:47:05;95684.53;;;10.03;71.22
13029;BME280;6581;42.662;23.402;2023-02-20T01:49:50;95681.44;;;10.01;71.18
13029;BME280;6581;42.662;23.402;2023-02-20T01:52:49;95685.56;;;9.99;72.41
13029;BME280;6581;42.662;23.402;2023-02-20T01:55:23;95681.59;;;10.08;72.68
13029;BME280;6581;42.662;23.402;2023-02-20T01:58:00;95682.03;;;10.10;72.42
13029;BME280;6581;42.662;23.402;2023-02-20T02:00:32;95669.13;;;10.09;72.54
13029;BME280;6581;42.662;23.402;2023-02-20T02:03:09;95694.75;;;10.05;73.25
13029;BME280;6581;42.662;23.402;2023-02-20T02:43:39;95714.91;;;9.19;74.06
13029;BME280;6581;42.662;23.402;2023-02-20T02:47:44;95723.41;;;9.12;74.33
13029;BME280;6581;42.662;23.402;2023-02-20T03:17:58;95762.69;;;8.98;75.80
13029;BME280;6581;42.662;23.402;2023-02-20T04:14:03;95757.06;;;8.48;74.18
13029;BME280;6581;42.662;23.402;2023-02-20T04:17:05;95747.25;;;8.60;73.35
13029;BME280;6581;42.662;23.402;2023-02-20T04:20:03;95766.03;;;8.71;72.72
13029;BME280;6581;42.662;23.402;2023-02-20T05:15:29;95837.50;;;8.17;69.10
13029;BME280;6581;42.662;23.402;2023-02-20T05:20:58;95843.00;;;8.12;67.87
13029;BME280;6581;42.662;23.402;2023-02-20T05:27:04;95855.56;;;8.15;66.54
13029;BME280;6581;42.662;23.402;2023-02-20T05:30:35;95867.50;;;8.33;65.05
13029;BME280;6581;42.662;23.402;2023-02-20T05:34:36;95852.47;;;8.13;65.71
13029;BME280;6581;42.662;23.402;2023-02-20T05:37:21;95886.19;;;8.08;66.26
13029;BME280;6581;42.662;23.402;2023-02-20T06:30:03;95910.41;;;8.67;60.72
13029;BME280;6581;42.662;23.402;2023-02-20T06:33:04;95928.38;;;8.73;60.43
13029;BME280;6581;42.662;23.402;2023-02-20T06:35:45;95928.94;;;8.79;60.08
13029;BME280;6581;42.662;23.402;2023-02-20T06:39:07;95926.84;;;8.97;59.39
13029;BME280;6581;42.662;23.402;2023-02-20T06:41:45;95913.59;;;9.09;57.91
13029;BME280;6581;42.662;23.402;2023-02-20T06:44:24;95940.25;;;9.28;58.09
13029;BME280;6581;42.662;23.402;2023-02-20T07:50:45;95974.94;;;9.14;49.17
13029;BME280;6581;42.662;23.402;2023-02-20T07:53:35;95975.94;;;9.10;48.70
13029;BME280;6581;42.662;23.402;2023-02-20T07:56:07;95990.38;;;9.24;48.04
13029;BME280;6581;42.662;23.402;2023-02-20T07:59:03;95974.41;;;9.09;48.12
13029;BME280;6581;42.662;23.402;2023-02-20T08:03:07;95988.81;;;8.99;49.77
13029;BME280;6581;42.662;23.402;2023-02-20T08:05:49;95975.50;;;8.96;49.00
13029;BME280;6581;42.662;23.402;2023-02-20T08:08:28;95969.31;;;9.04;48.22
13029;BME280;6581;42.662;23.402;2023-02-20T08:11:05;95970.75;;;9.13;48.35
13029;BME280;6581;42.662;23.402;2023-02-20T08:13:44;95975.94;;;9.22;47.95
13029;BME280;6581;42.662;23.402;2023-02-20T08:16:11;95955.25;;;9.12;47.54
13029;BME280;6581;42.662;23.402;2023-02-20T08:18:55;95990.25;;;9.45;47.86
13029;BME280;6581;42.662;23.402;2023-02-20T08:21:33;95984.16;;;9.45;47.93
13029;BME280;6581;42.662;23.402;2023-02-20T08:24:05;95985.72;;;9.46;46.82
13029;BME280;6581;42.662;23.402;2023-02-20T08:26:51;95975.16;;;9.33;47.40
13029;BME280;6581;42.662;23.402;2023-02-20T08:29:31;95999.72;;;9.46;46.94
13029;BME280;6581;42.662;23.402;2023-02-20T08:32:01;95957.97;;;9.27;46.75
13029;BME280;6581;42.662;23.402;2023-02-20T08:34:33;96000.59;;;9.26;47.49
13029;BME280;6581;42.662;23.402;2023-02-20T08:37:06;95987.28;;;9.47;47.06
13029;BME280;6581;42.662;23.402;2023-02-20T08:39:54;95979.88;;;9.40;47.10
13029;BME280;6581;42.662;23.402;2023-02-20T08:42:55;95994.97;;;9.52;46.32
13029;BME280;6581;42.662;23.402;2023-02-20T08:45:41;96009.75;;;9.41;45.62
13029;BME280;6581;42.662;23.402;2023-02-20T08:48:29;95966.13;;;9.47;46.12
13029;BME280;6581;42.662;23.402;2023-02-20T08:51:44;95983.25;;;9.77;45.70
13029;BME280;6581;42.662;23.402;2023-02-20T09:00:43;95989.16;;;9.86;44.92
13029;BME280;6581;42.662;23.402;2023-02-20T09:03:39;95959.41;;;9.77;45.80
13029;BME280;6581;42.662;23.402;2023-02-20T09:06:09;95966.81;;;9.84;45.46
13029;BME280;6581;42.662;23.402;2023-02-20T09:08:40;95987.59;;;9.97;45.12
13029;BME280;6581;42.662;23.402;2023-02-20T09:11:22;95966.94;;;9.75;44.86
13029;BME280;6581;42.662;23.402;2023-02-20T09:14:22;95957.50;;;9.62;44.32
13029;BME280;6581;42.662;23.402;2023-02-20T09:16:55;95949.91;;;9.88;45.01
13029;BME280;6581;42.662;23.402;2023-02-20T09:19:32;95985.75;;;9.86;44.24
13029;BME280;6581;42.662;23.402;2023-02-20T09:26:31;95951.03;;;9.87;43.40
13029;BME280;6581;42.662;23.402;2023-02-20T09:29:17;95969.88;;;9.86;44.17
13029;BME280;6581;42.662;23.402;2023-02-20T09:31:59;95961.06;;;9.82;44.25
13029;BME280;6581;42.662;23.402;2023-02-20T09:34:30;95961.28;;;9.89;43.76
13029;BME280;6581;42.662;23.402;2023-02-20T09:36:59;95948.81;;;9.89;43.92
13029;BME280;6581;42.662;23.402;2023-02-20T09:39:44;95964.75;;;10.05;43.99
13029;BME280;6581;42.662;23.402;2023-02-20T09:42:22;95950.38;;;10.18;44.34
13029;BME280;6581;42.662;23.402;2023-02-20T09:45:03;95938.59;;;10.31;44.50
13029;BME280;6581;42.662;23.402;2023-02-20T09:48:11;95948.88;;;10.33;43.81
13029;BME280;6581;42.662;23.402;2023-02-20T09:51:12;95947.16;;;10.25;44.12
13029;BME280;6581;42.662;23.402;2023-02-20T09:57:10;95961.31;;;10.76;43.87
13029;BME280;6581;42.662;23.402;2023-02-20T10:02:50;95977.06;;;10.41;44.09
13029;BME280;6581;42.662;23.402;2023-02-20T10:05:28;95953.75;;;10.31;44.01
13029;BME280;6581;42.662;23.402;2023-02-20T10:08:52;95972.50;;;10.53;43.00
13029;BME280;6581;42.662;23.402;2023-02-20T10:11:47;95926.41;;;10.42;42.76
13029;BME280;6581;42.662;23.402;2023-02-20T10:15:28;95944.53;;;10.56;42.33
13029;BME280;6581;42.662;23.402;2023-02-20T10:18:08;95940.03;;;10.72;41.70
13029;BME280;6581;42.662;23.402;2023-02-20T10:24:07;95937.03;;;10.89;40.89
13029;BME280;6581;42.662;23.402;2023-02-20T10:27:45;95941.91;;;10.72;40.57
13029;BME280;6581;42.662;23.402;2023-02-20T10:34:43;95936.84;;;10.82;39.91
13029;BME280;6581;42.662;23.402;2023-02-20T10:37:23;95918.75;;;10.84;39.16
13029;BME280;6581;42.662;23.402;2023-02-20T10:39:59;95926.38;;;10.86;39.09
13029;BME280;6581;42.662;23.402;2023-02-20T10:42:38;95928.13;;;10.82;39.41
13029;BME280;6581;42.662;23.402;2023-02-20T10:45:36;95929.25;;;11.12;38.95
13029;BME280;6581;42.662;23.402;2023-02-20T10:48:56;95906.22;;;11.16;38.97
13029;BME280;6581;42.662;23.402;2023-02-20T10:52:15;95904.28;;;10.97;38.67
13029;BME280;6581;42.662;23.402;2023-02-20T10:54:54;95915.34;;;11.19;38.40
13029;BME280;6581;42.662;23.402;2023-02-20T10:58:54;95895.69;;;11.20;39.80
13029;BME280;6581;42.662;23.402;2023-02-20T11:01:38;95908.53;;;11.37;37.93
13029;BME280;6581;42.662;23.402;2023-02-20T11:04:18;95896.84;;;11.57;38.46
13029;BME280;6581;42.662;23.402;2023-02-20T11:07:08;95914.53;;;11.49;37.77
13029;BME280;6581;42.662;23.402;2023-02-20T11:10:24;95865.22;;;11.48;37.52
13029;BME280;6581;42.662;23.402;2023-02-20T11:13:43;95891.22;;;11.59;37.68
13029;BME280;6581;42.662;23.402;2023-02-20T11:17:00;95885.72;;;11.86;37.88
13029;BME280;6581;42.662;23.402;2023-02-20T11:19:47;95892.53;;;11.87;37.60
13029;BME280;6581;42.662;23.402;2023-02-20T11:22:37;95902.13;;;11.92;38.42
13029;BME280;6581;42.662;23.402;2023-02-20T11:25:19;95922.16;;;11.70;38.94
13029;BME280;6581;42.662;23.402;2023-02-20T11:28:28;95890.63;;;11.69;39.30
13029;BME280;6581;42.662;23.402;2023-02-20T11:31:47;95896.41;;;11.90;38.68
13029;BME280;6581;42.662;23.402;2023-02-20T11:52:32;95876.63;;;11.87;38.48
13029;BME280;6581;42.662;23.402;2023-02-20T11:55:19;95907.16;;;11.97;37.95
13029;BME280;6581;42.662;23.402;2023-02-20T12:05:11;95891.03;;;12.28;37.13
13029;BME280;6581;42.662;23.402;2023-02-20T12:12:14;95854.25;;;12.08;38.09
13029;BME280;6581;42.662;23.402;2023-02-20T12:15:21;95865.38;;;12.36;37.78
13029;BME280;6581;42.662;23.402;2023-02-20T12:18:39;95886.44;;;12.71;37.08
13029;BME280;6581;42.662;23.402;2023-02-20T12:21:26;95866.91;;;12.37;36.82
13029;BME280;6581;42.662;23.402;2023-02-20T12:24:11;95890.06;;;12.36;37.20
13029;BME280;6581;42.662;23.402;2023-02-20T12:26:50;95878.72;;;12.39;36.65
13029;BME280;6581;42.662;23.402;2023-02-20T12:29:31;95881.72;;;12.38;36.86
13029;BME280;6581;42.662;23.402;2023-02-20T12:32:20;95883.72;;;12.44;37.26
13029;BME280;6581;42.662;23.402;2023-02-20T12:35:03;95879.34;;;12.56;37.00
13029;BME280;6581;42.662;23.402;2023-02-20T12:37:44;95883.97;;;12.59;36.79
13029;BME280;6581;42.662;23.402;2023-02-20T12:40:34;95880.88;;;12.57;36.65
13029;BME280;6581;42.662;23.402;2023-02-20T12:43:12;95874.50;;;12.61;36.60
13029;BME280;6581;42.662;23.402;2023-02-20T12:45:49;95891.28;;;12.65;36.52
13029;BME280;6581;42.662;23.402;2023-02-20T12:48:27;95880.13;;;12.56;37.16
13029;BME280;6581;42.662;23.402;2023-02-20T12:51:29;95884.16;;;12.69;37.35
13029;BME280;6581;42.662;23.402;2023-02-20T12:54:10;95887.53;;;12.93;36.65
13029;BME280;6581;42.662;23.402;2023-02-20T12:56:51;95892.50;;;12.94;36.35
13029;BME280;6581;42.662;23.402;2023-02-20T12:59:27;95887.59;;;12.96;36.22
13029;BME280;6581;42.662;23.402;2023-02-20T13:02:04;95892.44;;;12.91;36.12
13029;BME280;6581;42.662;23.402;2023-02-20T13:04:43;95907.63;;;12.90;36.12
13029;BME280;6581;42.662;23.402;2023-02-20T13:07:25;95892.13;;;13.18;35.99
13029;BME280;6581;42.662;23.402;2023-02-20T13:10:14;95890.38;;;13.29;35.70
13029;BME280;6581;42.662;23.402;2023-02-20T13:12:50;95890.38;;;13.29;35.12
13029;BME280;6581;42.662;23.402;2023-02-20T13:15:35;95891.94;;;13.08;35.39
13029;BME280;6581;42.662;23.402;2023-02-20T13:18:22;95882.06;;;12.82;35.68
13029;BME280;6581;42.662;23.402;2023-02-20T13:21:54;95910.47;;;13.01;35.71
13029;BME280;6581;42.662;23.402;2023-02-20T13:24:44;95901.06;;;12.84;36.33
13029;BME280;6581;42.662;23.402;2023-02-20T13:27:40;95923.66;;;12.71;36.45
13029;BME280;6581;42.662;23.402;2023-02-20T13:30:31;95879.56;;;12.70;36.21
13029;BME280;6581;42.662;23.402;2023-02-20T13:40:42;95910.31;;;13.16;36.16
13029;BME280;6581;42.662;23.402;2023-02-20T13:44:00;95898.88;;;13.12;36.79
13029;BME280;6581;42.662;23.402;2023-02-20T13:47:51;95878.94;;;13.03;36.87
13029;BME280;6581;42.662;23.402;2023-02-20T13:51:34;95896.38;;;13.00;36.98
13029;BME280;6581;42.662;23.402;2023-02-20T13:58:09;95907.97;;;12.88;37.66
13029;BME280;6581;42.662;23.402;2023-02-20T14:01:09;95928.56;;;12.92;37.18
13029;BME280;6581;42.662;23.402;2023-02-20T14:07:30;95900.97;;;12.31;38.09
13029;BME280;6581;42.662;23.402;2023-02-20T14:10:46;95907.81;;;12.32;37.88
13029;BME280;6581;42.662;23.402;2023-02-20T14:13:21;95901.72;;;12.32;38.09
13029;BME280;6581;42.662;23.402;2023-02-20T14:15:54;95915.44;;;12.15;38.71
13029;BME280;6581;42.662;23.402;2023-02-20T14:18:25;95910.00;;;12.27;39.64
13029;BME280;6581;42.662;23.402;2023-02-20T14:21:13;95915.19;;;12.42;38.61
13029;BME280;6581;42.662;23.402;2023-02-20T14:24:27;95901.28;;;12.49;38.48
13029;BME280;6581;42.662;23.402;2023-02-20T14:27:47;95888.38;;;12.51;38.33
13029;BME280;6581;42.662;23.402;2023-02-20T14:30:37;95930.00;;;12.43;38.66
13029;BME280;6581;42.662;23.402;2023-02-20T14:33:27;95922.44;;;12.23;39.46
13029;BME280;6581;42.662;23.402;2023-02-20T14:39:19;95905.41;;;12.05;39.97
13029;BME280;6581;42.662;23.402;2023-02-20T14:42:18;95924.78;;;12.05;39.93
13029;BME280;6581;42.662;23.402;2023-02-20T14:44:56;95923.72;;;12.10;40.18
13029;BME280;6581;42.662;23.402;2023-02-20T14:47:59;95922.31;;;11.96;40.85
13029;BME280;6581;42.662;23.402;2023-02-20T14:51:10;95926.16;;;11.80;41.02
13029;BME280;6581;42.662;23.402;2023-02-20T14:53:59;95925.59;;;11.90;41.10
13029;BME280;6581;42.662;23.402;2023-02-20T14:56:47;95925.53;;;12.06;40.98
13029;BME280;6581;42.662;23.402;2023-02-20T14:59:34;95915.94;;;12.01;41.33
13029;BME280;6581;42.662;23.402;2023-02-20T15:02:29;95941.47;;;11.86;40.94
13029;BME280;6581;42.662;23.402;2023-02-20T15:05:04;95937.84;;;11.60;41.94
13029;BME280;6581;42.662;23.402;2023-02-20T15:08:00;95938.53;;;11.56;42.03
13029;BME280;6581;42.662;23.402;2023-02-20T15:10:41;95932.53;;;11.60;41.96
13029;BME280;6581;42.662;23.402;2023-02-20T15:13:22;95944.06;;;11.67;42.05
13029;BME280;6581;42.662;23.402;2023-02-20T15:16:26;95942.50;;;11.47;42.59
13029;BME280;6581;42.662;23.402;2023-02-20T15:19:57;95940.56;;;11.28;43.17
13029;BME280;6581;42.662;23.402;2023-02-20T15:22:36;95943.16;;;11.25;43.27
13029;BME280;6581;42.662;23.402;2023-02-20T15:25:25;95951.09;;;11.25;43.57
13029;BME280;6581;42.662;23.402;2023-02-20T15:28:06;95942.75;;;11.23;43.41
13029;BME280;6581;42.662;23.402;2023-02-20T15:31:20;95959.75;;;11.22;43.23
13029;BME280;6581;42.662;23.402;2023-02-20T15:33:51;95955.22;;;11.22;43.77
13029;BME280;6581;42.662;23.402;2023-02-20T15:36:33;95973.94;;;11.29;43.53
13029;BME280;6581;42.662;23.402;2023-02-20T15:39:02;95953.44;;;11.26;43.71
13029;BME280;6581;42.662;23.402;2023-02-20T15:41:29;95941.53;;;11.36;43.72
13029;BME280;6581;42.662;23.402;2023-02-20T15:44:18;95927.34;;;11.13;43.86
13029;BME280;6581;42.662;23.402;2023-02-20T15:47:00;95925.22;;;11.02;43.67
13029;BME280;6581;42.662;23.402;2023-02-20T15:49:30;95941.53;;;11.20;43.69
13029;BME280;6581;42.662;23.402;2023-02-20T15:52:09;95949.09;;;11.18;43.92
13029;BME280;6581;42.662;23.402;2023-02-20T15:55:01;95950.97;;;11.18;44.07
13029;BME280;6581;42.662;23.402;2023-02-20T15:58:33;95937.22;;;10.81;44.16
13029;BME280;6581;42.662;23.402;2023-02-20T16:01:15;95947.47;;;10.82;43.88
13029;BME280;6581;42.662;23.402;2023-02-20T16:03:48;95962.34;;;10.87;44.13
13029;BME280;6581;42.662;23.402;2023-02-20T16:06:50;95942.31;;;10.42;45.29
13029;BME280;6581;42.662;23.402;2023-02-20T16:10:02;95965.16;;;10.62;45.90
13029;BME280;6581;42.662;23.402;2023-02-20T16:13:22;95937.09;;;10.46;45.73
13029;BME280;6581;42.662;23.402;2023-02-20T16:16:39;95951.81;;;10.59;45.64
13029;BME280;6581;42.662;23.402;2023-02-20T16:23:52;95944.63;;;10.44;46.33
13029;BME280;6581;42.662;23.402;2023-02-20T16:26:45;95962.13;;;10.33;47.10
13029;BME280;6581;42.662;23.402;2023-02-20T16:29:38;95964.16;;;10.11;47.24
13029;BME280;6581;42.662;23.402;2023-02-20T16:32:31;95957.41;;;9.86;47.92
13029;BME280;6581;42.662;23.402;2023-02-20T16:35:34;95981.59;;;9.85;48.45
13029;BME280;6581;42.662;23.402;2023-02-20T16:38:08;95975.31;;;9.77;48.81
13029;BME280;6581;42.662;23.402;2023-02-20T16:41:24;95978.53;;;9.70;49.38
13029;BME280;6581;42.662;23.402;2023-02-20T16:44:45;95986.38;;;9.67;49.69
13029;BME280;6581;42.662;23.402;2023-02-20T16:50:59;95986.38;;;9.67;50.18
13029;BME280;6581;42.662;23.402;2023-02-20T16:53:33;95993.53;;;9.54;50.35
13029;BME280;6581;42.662;23.402;2023-02-20T16:56:12;95980.88;;;9.48;51.08
13029;BME280;6581;42.662;23.402;2023-02-20T16:59:21;95988.81;;;9.48;51.64
13029;BME280;6581;42.662;23.402;2023-02-20T17:02:22;95994.09;;;9.48;51.17
13029;BME280;6581;42.662;23.402;2023-02-20T17:05:33;95991.34;;;9.32;51.64
13029;BME280;6581;42.662;23.402;2023-02-20T17:08:26;95991.34;;;9.32;51.57
13029;BME280;6581;42.662;23.402;2023-02-20T17:11:27;96002.81;;;9.36;51.61
13029;BME280;6581;42.662;23.402;2023-02-20T17:14:05;95998.88;;;9.30;51.96
13029;BME280;6581;42.662;23.402;2023-02-20T17:16:37;95997.75;;;9.31;52.62
13029;BME280;6581;42.662;23.402;2023-02-20T17:19:27;95992.66;;;9.26;53.09
13029;BME280;6581;42.662;23.402;2023-02-20T17:22:01;96003.59;;;9.37;51.45
13029;BME280;6581;42.662;23.402;2023-02-20T17:24:48;95992.44;;;9.31;51.64
13029;BME280;6581;42.662;23.402;2023-02-20T17:27:31;96007.09;;;9.41;51.74
13029;BME280;6581;42.662;23.402;2023-02-20T17:30:08;96017.56;;;9.37;52.14
13029;BME280;6581;42.662;23.402;2023-02-20T17:33:03;95997.75;;;9.19;52.05
13029;BME280;6581;42.662;23.402;2023-02-20T17:36:30;96020.91;;;9.34;51.88
13029;BME280;6581;42.662;23.402;2023-02-20T17:39:37;96018.13;;;9.30;52.06
13029;BME280;6581;42.662;23.402;2023-02-20T17:42:58;95994.78;;;9.20;52.27
13029;BME280;6581;42.662;23.402;2023-02-20T17:45:41;95999.31;;;9.20;51.90
13029;BME280;6581;42.662;23.402;2023-02-20T17:48:10;96003.91;;;9.23;52.47
13029;BME280;6581;42.662;23.402;2023-02-20T17:50:45;96001.38;;;9.14;51.79
13029;BME280;6581;42.662;23.402;2023-02-20T17:53:23;96011.41;;;9.21;52.26
13029;BME280;6581;42.662;23.402;2023-02-20T17:56:00;96000.94;;;9.24;52.11
13029;BME280;6581;42.662;23.402;2023-02-20T17:58:45;95988.69;;;9.08;52.13
13029;BME280;6581;42.662;23.402;2023-02-20T18:01:38;96006.56;;;9.23;51.84
13029;BME280;6581;42.662;23.402;2023-02-20T18:04:29;96013.28;;;9.20;52.36
13029;BME280;6581;42.662;23.402;2023-02-20T18:07:22;96010.88;;;9.15;51.97
13029;BME280;6581;42.662;23.402;2023-02-20T18:09:51;96006.78;;;9.18;52.04
13029;BME280;6581;42.662;23.402;2023-02-20T18:12:29;95998.97;;;9.09;52.29
13029;BME280;6581;42.662;23.402;2023-02-20T18:15:19;96000.81;;;9.09;52.62
13029;BME280;6581;42.662;23.402;2023-02-20T18:18:08;96004.81;;;9.15;52.57
13029;BME280;6581;42.662;23.402;2023-02-20T18:20:54;95975.28;;;9.01;52.96
13029;BME280;6581;42.662;23.402;2023-02-20T18:23:21;95991.59;;;9.15;52.72
13029;BME280;6581;42.662;23.402;2023-02-20T18:25:49;95995.88;;;9.19;52.85
13029;BME280;6581;42.662;23.402;2023-02-20T18:28:24;95970.44;;;9.03;52.94
13029;BME280;6581;42.662;23.402;2023-02-20T18:31:16;95971.75;;;8.97;53.21
13029;BME280;6581;42.662;23.402;2023-02-20T18:33:49;95997.09;;;9.10;53.18
13029;BME280;6581;42.662;23.402;2023-02-20T18:37:11;95977.59;;;9.02;52.38
13029;BME280;6581;42.662;23.402;2023-02-20T18:40:20;95976.50;;;9.15;52.46
13029;BME280;6581;42.662;23.402;2023-02-20T18:44:01;95963.94;;;9.00;52.71
13029;BME280;6581;42.662;23.402;2023-02-20T18:46:58;95985.75;;;9.09;52.86
13029;BME280;6581;42.662;23.402;2023-02-20T18:49:40;95977.72;;;9.06;52.92
13029;BME280;6581;42.662;23.402;2023-02-20T18:52:29;95967.88;;;8.94;53.89
13029;BME280;6581;42.662;23.402;2023-02-20T18:55:35;95976.81;;;9.02;53.61
13029;BME280;6581;42.662;23.402;2023-02-20T18:58:02;95975.50;;;8.96;53.99
13029;BME280;6581;42.662;23.402;2023-02-20T19:04:17;95971.97;;;8.92;54.30
13029;BME280;6581;42.662;23.402;2023-02-20T19:10:33;95950.28;;;8.86;53.35
13029;BME280;6581;42.662;23.402;2023-02-20T19:14:09;95933.09;;;8.80;53.80
13029;BME280;6581;42.662;23.402;2023-02-20T19:17:58;95937.16;;;8.77;53.91
13029;BME280;6581;42.662;23.402;2023-02-20T19:20:56;95945.09;;;8.89;53.26
13029;BME280;6581;42.662;23.402;2023-02-20T19:26:49;95938.28;;;8.88;53.49
13029;BME280;6581;42.662;23.402;2023-02-20T19:29:29;95924.63;;;8.86;53.37
13029;BME280;6581;42.662;23.402;2023-02-20T19:36:32;95919.13;;;8.67;54.10
13029;BME280;6581;42.662;23.402;2023-02-20T19:39:54;95914.28;;;8.69;54.05
13029;BME280;6581;42.662;23.402;2023-02-20T19:43:17;95937.16;;;8.77;54.26
13029;BME280;6581;42.662;23.402;2023-02-20T19:46:37;95929.91;;;8.74;54.22
13029;BME280;6581;42.662;23.402;2023-02-20T19:50:08;95908.91;;;8.66;54.50
13029;BME280;6581;42.662;23.402;2023-02-20T19:57:33;95910.63;;;8.17;56.54
13029;BME280;6581;42.662;23.402;2023-02-20T20:00:42;95920.63;;;7.78;57.98
13029;BME280;6581;42.662;23.402;2023-02-20T20:07:03;95918.88;;;7.20;60.14
13029;BME280;6581;42.662;23.402;2023-02-20T20:19:22;95914.22;;;6.67;63.27
13029;BME280;6581;42.662;23.402;2023-02-20T20:26:09;95913.38;;;6.46;64.40
13029;BME280;6581;42.662;23.402;2023-02-20T20:29:14;95905.22;;;6.30;64.82
13029;BME280;6581;42.662;23.402;2023-02-20T20:32:46;95900.63;;;6.18;66.03
13029;BME280;6581;42.662;23.402;2023-02-20T20:35:55;95883.50;;;5.95;66.58
13029;BME280;6581;42.662;23.402;2023-02-20T20:41:30;95884.56;;;5.86;67.80
13029;BME280;6581;42.662;23.402;2023-02-20T20:44:07;95864.28;;;5.77;68.01
13029;BME280;6581;42.662;23.402;2023-02-20T20:47:03;95872.66;;;5.79;67.87
13029;BME280;6581;42.662;23.402;2023-02-20T20:49:35;95872.84;;;5.66;68.55
13029;BME280;6581;42.662;23.402;2023-02-20T20:52:14;95877.94;;;5.62;68.80
13029;BME280;6581;42.662;23.402;2023-02-20T20:55:05;95876.25;;;5.49;68.98
13029;BME280;6581;42.662;23.402;2023-02-20T20:57:42;95890.31;;;5.62;68.86
13029;BME280;6581;42.662;23.402;2023-02-20T21:00:21;95883.66;;;5.64;69.48
13029;BME280;6581;42.662;23.402;2023-02-20T21:02:55;95885.84;;;5.62;69.55
13029;BME280;6581;42.662;23.402;2023-02-20T21:09:45;95858.63;;;5.50;69.98
13029;BME280;6581;42.662;23.402;2023-02-20T21:13:34;95858.16;;;5.39;70.78
13029;BME280;6581;42.662;23.402;2023-02-20T21:16:28;95852.44;;;5.28;71.41
13029;BME280;6581;42.662;23.402;2023-02-20T21:24:35;95867.75;;;5.52;71.40
13029;BME280;6581;42.662;23.402;2023-02-20T21:31:21;95846.41;;;5.36;70.98
13029;BME280;6581;42.662;23.402;2023-02-20T21:35:01;95827.09;;;5.24;72.17
13029;BME280;6581;42.662;23.402;2023-02-20T21:38:11;95839.47;;;5.41;72.44
13029;BME280;6581;42.662;23.402;2023-02-20T22:26:40;95785.47;;;5.69;69.46
13029;BME280;6581;42.662;23.402;2023-02-20T22:59:21;95780.94;;;4.97;73.39
13029;BME280;6581;42.662;23.402;2023-02-20T23:10:35;95800.22;;;4.93;75.04
13029;BME280;6581;42.662;23.402;2023-02-20T23:18:52;95794.34;;;5.04;74.67
13029;BME280;6581;42.662;23.402;2023-02-20T23:22:36;95772.13;;;4.93;74.54
13029;BME280;6581;42.662;23.402;2023-02-20T23:26:02;95780.28;;;5.00;74.85
13029;BME280;6581;42.662;23.402;2023-02-20T23:29:28;95753.28;;;4.74;75.13
13029;BME280;6581;42.662;23.402;2023-02-20T23:32:33;95762.06;;;4.78;74.31
13029;BME280;6581;42.662;23.402;2023-02-20T23:40:04;95752.50;;;4.65;76.40
13029;BME280;6581;42.662;23.402;2023-02-20T23:46:26;95740.63;;;4.67;75.79
13029;BME280;6581;42.662;23.402;2023-02-20T23:50:19;95731.34;;;4.61;75.11
13029;BME280;6581;42.662;23.402;2023-02-20T23:53:15;95725.03;;;4.54;76.21
